<?xml version="1.0" encoding="UTF-8" standalone="no" ?>
<gpx xmlns="http://www.topografix.com/GPX/1/1" xmlns:xsi="http://www.w3.org/2001/XMLSchema-instance" xsi:schemaLocation="http://www.topografix.com/GPX/1/1 http://www.topografix.com/GPX/1/1/gpx.xsd" version="1.1" creator="VisuGPX - https://www.visugpx.com">
  <metadata>
    <name>Pic de la Humassade</name>
    <desc><![CDATA[Petite randonnée facile, basse en altitude permettant de la faire en hivers]]></desc>
  </metadata>
  <trk>
    <name><![CDATA[GPSies Track on GPSies.com]]></name>
    <trkseg>
      <trkpt lat="42.95916" lon="0.55586">
        <ele>753</ele>
        <time>2010-01-01T00:00:00Z</time>
      </trkpt>
      <trkpt lat="42.95932" lon="0.55582">
        <ele>755</ele>
        <time>2010-01-01T00:00:06Z</time>
      </trkpt>
      <trkpt lat="42.95919" lon="0.55523">
        <ele>755</ele>
        <time>2010-01-01T00:00:24Z</time>
      </trkpt>
      <trkpt lat="42.9591" lon="0.55453">
        <ele>753</ele>
        <time>2010-01-01T00:00:45Z</time>
      </trkpt>
      <trkpt lat="42.95908" lon="0.5537">
        <ele>753</ele>
        <time>2010-01-01T00:01:09Z</time>
      </trkpt>
      <trkpt lat="42.95929" lon="0.55323">
        <ele>759</ele>
        <time>2010-01-01T00:01:25Z</time>
      </trkpt>
      <trkpt lat="42.95942" lon="0.55267">
        <ele>768</ele>
        <time>2010-01-01T00:01:42Z</time>
      </trkpt>
      <trkpt lat="42.95937" lon="0.55205">
        <ele>765</ele>
        <time>2010-01-01T00:02:01Z</time>
      </trkpt>
      <trkpt lat="42.95922" lon="0.55159">
        <ele>756</ele>
        <time>2010-01-01T00:02:15Z</time>
      </trkpt>
      <trkpt lat="42.95935" lon="0.55095">
        <ele>756</ele>
        <time>2010-01-01T00:02:35Z</time>
      </trkpt>
      <trkpt lat="42.95963" lon="0.55058">
        <ele>763</ele>
        <time>2010-01-01T00:02:51Z</time>
      </trkpt>
      <trkpt lat="42.95978" lon="0.55025">
        <ele>763</ele>
        <time>2010-01-01T00:03:02Z</time>
      </trkpt>
      <trkpt lat="42.95985" lon="0.54936">
        <ele>747</ele>
        <time>2010-01-01T00:03:28Z</time>
      </trkpt>
      <trkpt lat="42.9603" lon="0.54839">
        <ele>744</ele>
        <time>2010-01-01T00:04:02Z</time>
      </trkpt>
      <trkpt lat="42.96074" lon="0.54769">
        <ele>750</ele>
        <time>2010-01-01T00:04:29Z</time>
      </trkpt>
      <trkpt lat="42.96173" lon="0.54616">
        <ele>760</ele>
        <time>2010-01-01T00:05:28Z</time>
      </trkpt>
      <trkpt lat="42.96202" lon="0.54585">
        <ele>763</ele>
        <time>2010-01-01T00:05:43Z</time>
      </trkpt>
      <trkpt lat="42.96224" lon="0.54534">
        <ele>761</ele>
        <time>2010-01-01T00:06:01Z</time>
      </trkpt>
      <trkpt lat="42.9627" lon="0.54483">
        <ele>764</ele>
        <time>2010-01-01T00:06:24Z</time>
      </trkpt>
      <trkpt lat="42.963" lon="0.54462">
        <ele>769</ele>
        <time>2010-01-01T00:06:38Z</time>
      </trkpt>
      <trkpt lat="42.96328" lon="0.54426">
        <ele>769</ele>
        <time>2010-01-01T00:06:53Z</time>
      </trkpt>
      <trkpt lat="42.96363" lon="0.54419">
        <ele>778</ele>
        <time>2010-01-01T00:07:07Z</time>
      </trkpt>
      <trkpt lat="42.9641" lon="0.54448">
        <ele>795</ele>
        <time>2010-01-01T00:07:28Z</time>
      </trkpt>
      <trkpt lat="42.9649" lon="0.54389">
        <ele>820</ele>
        <time>2010-01-01T00:08:05Z</time>
      </trkpt>
      <trkpt lat="42.96523" lon="0.54331">
        <ele>817</ele>
        <time>2010-01-01T00:08:26Z</time>
      </trkpt>
      <trkpt lat="42.96652" lon="0.54166">
        <ele>842</ele>
        <time>2010-01-01T00:09:37Z</time>
      </trkpt>
      <trkpt lat="42.96817" lon="0.54157">
        <ele>882</ele>
        <time>2010-01-01T00:10:43Z</time>
      </trkpt>
      <trkpt lat="42.96875" lon="0.53994">
        <ele>900</ele>
        <time>2010-01-01T00:11:36Z</time>
      </trkpt>
      <trkpt lat="42.96982" lon="0.53872">
        <ele>942</ele>
        <time>2010-01-01T00:12:32Z</time>
      </trkpt>
      <trkpt lat="42.97099" lon="0.53621">
        <ele>1040</ele>
        <time>2010-01-01T00:13:59Z</time>
      </trkpt>
      <trkpt lat="42.97183" lon="0.53203">
        <ele>1185</ele>
        <time>2010-01-01T00:16:06Z</time>
      </trkpt>
      <trkpt lat="42.9726" lon="0.53055">
        <ele>1243</ele>
        <time>2010-01-01T00:16:59Z</time>
      </trkpt>
      <trkpt lat="42.97317" lon="0.53059">
        <ele>1274</ele>
        <time>2010-01-01T00:17:22Z</time>
      </trkpt>
      <trkpt lat="42.97384" lon="0.53059">
        <ele>1290</ele>
        <time>2010-01-01T00:17:49Z</time>
      </trkpt>
      <trkpt lat="42.97383" lon="0.53015">
        <ele>1295</ele>
        <time>2010-01-01T00:18:01Z</time>
      </trkpt>
      <trkpt lat="42.97358" lon="0.52945">
        <ele>1297</ele>
        <time>2010-01-01T00:18:24Z</time>
      </trkpt>
      <trkpt lat="42.97333" lon="0.52857">
        <ele>1298</ele>
        <time>2010-01-01T00:18:52Z</time>
      </trkpt>
      <trkpt lat="42.97327" lon="0.52786">
        <ele>1293</ele>
        <time>2010-01-01T00:19:13Z</time>
      </trkpt>
      <trkpt lat="42.97295" lon="0.52774">
        <ele>1289</ele>
        <time>2010-01-01T00:19:26Z</time>
      </trkpt>
      <trkpt lat="42.97234" lon="0.52735">
        <ele>1292</ele>
        <time>2010-01-01T00:19:53Z</time>
      </trkpt>
      <trkpt lat="42.9718" lon="0.52704">
        <ele>1313</ele>
        <time>2010-01-01T00:20:17Z</time>
      </trkpt>
      <trkpt lat="42.97125" lon="0.52754">
        <ele>1325</ele>
        <time>2010-01-01T00:20:43Z</time>
      </trkpt>
      <trkpt lat="42.97089" lon="0.52812">
        <ele>1326</ele>
        <time>2010-01-01T00:21:05Z</time>
      </trkpt>
      <trkpt lat="42.97017" lon="0.52907">
        <ele>1325</ele>
        <time>2010-01-01T00:21:45Z</time>
      </trkpt>
    </trkseg>
  </trk>
</gpx>